Time;durP1;ratioP1;P1;durP2;ratioP2;P2;SDS_P1;SDS_P2;PMS_P1;PMS_P2;Temp;Humidity;BMP_temperature;BMP_pressure;BME280_temperature;BME280_humidity;BME280_pressure;Samples;Min_cycle;Max_cycle;Signal;HPM_P1;HPM_P2
2023/10/10 00:01:43;;;;;;;8.87;4.43;;;17.10;1.00;;;;;;6310330;22;20400;-44
2023/10/10 00:04:10;;;;;;;12.13;4.90;;;17.10;1.00;;;;;;6309814;22;20388;-44
2023/10/10 00:06:39;;;;;;;11.67;5.03;;;17.00;1.00;;;;;;6310247;22;20436;-43
2023/10/10 00:09:10;;;;;;;7.43;4.70;;;17.00;1.00;;;;;;6309962;22;20386;-44
2023/10/10 00:11:48;;;;;;;12.20;5.50;;;16.90;1.00;;;;;;6309996;22;20603;-44
2023/10/10 00:14:19;;;;;;;11.00;5.17;;;16.90;1.00;;;;;;6309438;22;20366;-44
2023/10/10 00:16:54;;;;;;;9.40;4.60;;;16.90;1.00;;;;;;6311045;22;20453;-44
2023/10/10 00:19:29;;;;;;;9.33;4.93;;;16.80;1.00;;;;;;6311069;22;20490;-44
2023/10/10 00:21:56;;;;;;;12.30;5.03;;;16.80;1.00;;;;;;6309795;22;20396;-44
2023/10/10 00:24:30;;;;;;;8.00;3.83;;;16.80;1.00;;;;;;6309559;22;20389;-44
2023/10/10 00:26:59;;;;;;;8.57;3.40;;;16.80;1.00;;;;;;6310648;22;20350;-44
2023/10/10 00:29:26;;;;;;;12.00;4.40;;;16.70;1.00;;;;;;6310207;22;20359;-44
2023/10/10 00:31:55;;;;;;;8.37;4.30;;;16.70;1.00;;;;;;6311280;22;20382;-44
2023/10/10 00:34:33;;;;;;;8.17;4.70;;;16.70;1.00;;;;;;6310522;22;20382;-44
2023/10/10 00:37:07;;;;;;;14.50;5.83;;;16.70;1.00;;;;;;6310752;22;20453;-44
2023/10/10 00:39:35;;;;;;;10.50;5.10;;;16.70;1.00;;;;;;6310498;22;20477;-44
2023/10/10 00:42:04;;;;;;;9.10;5.30;;;16.60;1.00;;;;;;6308304;22;20446;-44
2023/10/10 00:44:30;;;;;;;8.57;5.60;;;16.60;1.00;;;;;;6283188;22;20624;-43
2023/10/10 00:46:57;;;;;;;10.10;6.60;;;16.60;1.00;;;;;;6309889;22;20412;-44
2023/10/10 00:49:25;;;;;;;8.70;4.70;;;16.50;1.00;;;;;;6282750;22;20622;-43
2023/10/10 00:51:53;;;;;;;13.03;5.10;;;16.50;2.60;;;;;;6310381;22;20382;-44
2023/10/10 00:56:54;;;;;;;8.63;4.63;;;16.50;17.80;;;;;;6308981;22;20410;-44
2023/10/10 00:59:23;;;;;;;9.83;4.90;;;16.40;27.60;;;;;;6283601;22;20389;-45
2023/10/10 01:01:49;;;;;;;12.57;4.93;;;16.40;36.10;;;;;;6308824;22;20835;-44
2023/10/10 01:04:28;;;;;;;11.50;5.70;;;16.40;41.70;;;;;;6310292;22;20374;-43
2023/10/10 01:06:54;;;;;;;9.83;5.10;;;16.40;48.40;;;;;;6310372;22;20389;-44
2023/10/10 01:09:32;;;;;;;8.47;4.90;;;16.30;67.00;;;;;;6282085;22;20501;-43
2023/10/10 01:11:58;;;;;;;8.37;4.60;;;16.30;77.70;;;;;;6308623;22;20368;-44
2023/10/10 01:14:26;;;;;;;8.83;5.23;;;16.30;93.70;;;;;;6307999;22;20363;-44
2023/10/10 01:16:57;;;;;;;14.40;5.23;;;16.30;99.90;;;;;;6281653;22;20425;-45
2023/10/10 01:19:28;;;;;;;11.33;5.53;;;16.20;99.90;;;;;;6308957;22;20432;-44
2023/10/10 01:21:58;;;;;;;7.10;4.97;;;16.20;99.90;;;;;;6308194;22;20491;-44
2023/10/10 01:24:27;;;;;;;7.53;4.50;;;16.20;99.90;;;;;;6308894;22;20947;-44
2023/10/10 01:27:02;;;;;;;8.23;5.00;;;16.20;99.90;;;;;;6309541;22;20366;-45
2023/10/10 01:29:28;;;;;;;12.60;5.43;;;16.10;99.90;;;;;;6309654;22;20462;-44
2023/10/10 01:31:58;;;;;;;9.57;4.57;;;16.10;99.90;;;;;;6309976;22;20909;-43
2023/10/10 01:34:32;;;;;;;7.87;4.47;;;16.10;99.90;;;;;;6310061;22;20182;-43
2023/10/10 01:37:14;;;;;;;8.33;5.67;;;16.10;99.90;;;;;;6310133;22;20417;-44
2023/10/10 01:40:06;;;;;;;8.77;5.17;;;16.10;99.90;;;;;;6309714;22;20378;-43
2023/10/10 01:42:36;;;;;;;10.63;4.33;;;16.10;99.90;;;;;;6309841;22;20362;-43
2023/10/10 01:45:07;;;;;;;9.27;4.67;;;16.00;99.90;;;;;;6308300;22;20386;-43
2023/10/10 01:47:34;;;;;;;7.70;5.00;;;16.00;99.90;;;;;;6308378;22;20638;-44
2023/10/10 01:50:07;;;;;;;9.00;4.53;;;16.00;99.90;;;;;;6310231;22;20399;-44
2023/10/10 01:52:35;;;;;;;11.70;4.73;;;16.00;99.90;;;;;;6309494;22;20382;-43
2023/10/10 01:55:01;;;;;;;8.47;4.80;;;15.90;99.90;;;;;;6308435;22;20452;-44
2023/10/10 01:57:27;;;;;;;8.40;5.40;;;15.90;99.90;;;;;;6308235;22;20378;-43
2023/10/10 01:59:53;;;;;;;11.10;5.70;;;15.90;99.90;;;;;;6308442;22;20138;-44
2023/10/10 02:02:23;;;;;;;8.20;5.10;;;15.90;99.90;;;;;;6308642;22;20155;-43
2023/10/10 02:04:51;;;;;;;11.67;5.10;;;15.90;99.90;;;;;;6309783;22;20405;-44
2023/10/10 02:07:23;;;;;;;10.00;5.20;;;15.90;99.90;;;;;;6307956;22;20379;-44
2023/10/10 02:12:34;;;;;;;12.67;5.80;;;15.80;99.90;;;;;;6309687;22;20488;-43
2023/10/10 02:15:01;;;;;;;6.93;4.80;;;15.80;99.90;;;;;;6308699;22;20584;-46
2023/10/10 02:17:29;;;;;;;6.90;4.07;;;15.80;1.00;;;;;;6308787;22;20374;-43
2023/10/10 02:20:19;;;;;;;13.07;4.90;;;15.80;1.00;;;;;;6309211;22;20426;-44
2023/10/10 02:22:52;;;;;;;9.60;5.17;;;15.80;1.00;;;;;;6288161;22;20465;-43
2023/10/10 02:27:56;;;;;;;7.90;4.60;;;15.80;1.00;;;;;;6308962;22;20489;-43
2023/10/10 02:30:34;;;;;;;8.20;4.90;;;15.70;1.00;;;;;;6309274;22;20478;-43
2023/10/10 02:33:29;;;;;;;12.50;4.93;;;15.70;1.00;;;;;;6308628;22;20462;-43
2023/10/10 02:35:55;;;;;;;12.97;5.90;;;15.70;1.00;;;;;;6307868;22;20611;-43
2023/10/10 02:38:39;;;;;;;7.23;4.80;;;15.70;1.00;;;;;;6308991;22;20354;-44
2023/10/10 02:43:56;;;;;;;7.23;4.93;;;15.60;1.00;;;;;;6309315;22;20742;-44
2023/10/10 02:46:39;;;;;;;9.07;3.83;;;15.70;1.00;;;;;;6306969;22;20483;-43
2023/10/10 02:49:12;;;;;;;16.60;5.77;;;15.60;1.00;;;;;;6307485;22;20378;-43
2023/10/10 02:51:48;;;;;;;7.53;4.77;;;15.60;1.00;;;;;;6308287;22;20382;-43
2023/10/10 02:54:27;;;;;;;14.53;4.40;;;15.60;1.00;;;;;;6307886;22;20385;-43
2023/10/10 02:56:58;;;;;;;9.10;5.10;;;15.60;1.00;;;;;;6307200;22;20405;-43
2023/10/10 02:59:31;;;;;;;9.87;5.13;;;15.60;1.00;;;;;;6307096;22;20357;-43
2023/10/10 03:01:59;;;;;;;7.60;4.80;;;15.60;1.00;;;;;;6308516;22;20762;-43
2023/10/10 03:04:52;;;;;;;8.17;4.40;;;15.60;1.00;;;;;;6306784;22;20385;-43
2023/10/10 03:07:15;;;;;;;9.70;5.10;;;15.60;1.00;;;;;;6307317;22;20386;-43
2023/10/10 03:10:37;;;;;;;10.70;5.80;;;15.60;1.00;;;;;;6307334;22;20382;-43
2023/10/10 03:12:31;;;;;;;9.60;5.00;;;15.60;1.00;;;;;;6294741;22;20421;-43
2023/10/10 03:17:48;;;;;;;9.30;5.43;;;15.60;1.00;;;;;;6307071;22;20394;-43
2023/10/10 03:25:51;;;;;;;12.50;6.30;;;15.50;1.00;;;;;;6310071;22;20394;-43
2023/10/10 03:28:19;;;;;;;11.77;4.97;;;15.50;1.00;;;;;;6308998;22;20421;-43
2023/10/10 03:30:51;;;;;;;7.80;5.07;;;15.40;7.20;;;;;;6307513;22;20397;-43
2023/10/10 03:33:29;;;;;;;10.87;5.77;;;15.40;45.20;;;;;;6308662;22;20447;-46
2023/10/10 03:36:00;;;;;;;9.60;5.10;;;15.40;46.80;;;;;;6309058;22;20491;-43
2023/10/10 03:38:44;;;;;;;8.13;4.63;;;15.40;46.00;;;;;;6308235;22;20437;-43
2023/10/10 05:25:07;;;;;;;8.27;6.00;;;14.90;1.00;;;;;;6303996;22;20400;-44
2023/10/10 05:27:33;;;;;;;13.20;6.40;;;14.90;1.00;;;;;;6279266;22;20716;-44
2023/10/10 05:29:59;;;;;;;10.20;6.00;;;14.80;1.00;;;;;;6305801;22;20358;-44
2023/10/10 05:32:30;;;;;;;10.33;5.90;;;14.80;1.00;;;;;;6276994;22;20152;-44
2023/10/10 05:34:58;;;;;;;10.73;5.87;;;14.80;1.00;;;;;;6306757;22;20461;-44
2023/10/10 05:37:27;;;;;;;10.03;6.20;;;14.80;1.00;;;;;;6305472;22;20821;-45
2023/10/10 05:39:56;;;;;;;12.37;6.13;;;14.80;1.00;;;;;;6304020;22;20382;-44
2023/10/10 05:42:33;;;;;;;9.17;5.57;;;14.80;1.00;;;;;;6304712;22;20386;-44
2023/10/10 05:45:06;;;;;;;10.77;6.17;;;14.70;1.00;;;;;;6303858;22;20682;-44
2023/10/10 05:47:31;;;;;;;10.30;6.63;;;14.70;1.00;;;;;;6303700;22;20365;-44
2023/10/10 05:49:57;;;;;;;10.43;6.63;;;14.70;1.00;;;;;;6305659;22;20370;-45
2023/10/10 05:52:23;;;;;;;10.33;5.73;;;14.70;1.00;;;;;;6277159;22;20239;-44
2023/10/10 05:54:48;;;;;;;10.80;6.20;;;14.80;1.00;;;;;;6304229;22;20378;-44
2023/10/10 05:57:14;;;;;;;10.70;6.60;;;14.80;1.00;;;;;;6303947;22;20159;-44
2023/10/10 05:59:40;;;;;;;12.20;7.03;;;14.80;1.00;;;;;;6303460;22;20128;-43
2023/10/10 06:02:11;;;;;;;12.53;6.40;;;14.80;1.00;;;;;;6300676;22;20143;-44
2023/10/10 06:04:36;;;;;;;10.10;6.43;;;14.80;1.00;;;;;;6302376;22;20431;-44
2023/10/10 06:07:03;;;;;;;11.63;5.80;;;14.90;1.00;;;;;;6304266;22;20401;-43
2023/10/10 06:09:34;;;;;;;13.23;6.70;;;15.00;1.00;;;;;;6302307;22;20523;-43
2023/10/10 06:12:04;;;;;;;11.90;5.50;;;15.00;1.00;;;;;;6304652;22;20497;-44
2023/10/10 06:14:31;;;;;;;9.03;5.93;;;15.10;1.00;;;;;;6303613;22;20389;-44
2023/10/10 06:16:57;;;;;;;9.97;6.27;;;15.20;1.00;;;;;;6303646;22;20429;-43
2023/10/10 06:19:22;;;;;;;8.83;6.27;;;15.30;1.00;;;;;;6303771;22;20426;-43
2023/10/10 06:21:48;;;;;;;11.07;6.93;;;15.40;99.90;;;;;;6277524;22;20144;-44
2023/10/10 06:24:14;;;;;;;11.67;6.40;;;15.60;99.90;;;;;;6302627;22;20408;-44
2023/10/10 06:26:45;;;;;;;11.70;7.27;;;15.70;99.90;;;;;;6300566;22;20156;-45
2023/10/10 06:29:12;;;;;;;12.50;7.00;;;15.80;99.90;;;;;;6301553;22;20132;-45
2023/10/10 06:31:43;;;;;;;11.13;6.33;;;16.00;99.90;;;;;;6300446;22;20390;-45
2023/10/10 06:34:22;;;;;;;14.20;5.97;;;16.10;99.90;;;;;;6300551;22;20459;-44
2023/10/10 06:36:49;;;;;;;13.30;6.30;;;16.30;99.90;;;;;;6303227;22;20452;-45
2023/10/10 06:41:47;;;;;;;26.17;7.97;;;16.70;99.90;;;;;;6303164;22;20366;-45
2023/10/10 06:44:13;;;;;;;20.10;7.30;;;17.00;99.90;;;;;;6304179;22;20187;-45
2023/10/10 06:46:42;;;;;;;25.07;7.60;;;17.30;99.90;;;;;;6305585;22;20385;-44
2023/10/10 06:49:12;;;;;;;25.50;8.10;;;17.60;99.90;;;;;;6304527;22;20646;-45
2023/10/10 06:51:41;;;;;;;20.43;6.90;;;17.90;99.90;;;;;;6302846;22;20557;-45
2023/10/10 06:54:08;;;;;;;21.60;8.00;;;18.20;99.90;;;;;;6305414;22;20467;-45
2023/10/10 06:56:44;;;;;;;24.23;7.77;;;18.30;99.90;;;;;;6304686;22;20397;-45
2023/10/10 06:59:16;;;;;;;28.67;7.47;;;18.50;99.90;;;;;;6302312;22;20658;-45
2023/10/10 07:01:48;;;;;;;15.17;6.57;;;18.70;82.90;;;;;;6303844;22;20817;-45
2023/10/10 07:04:15;;;;;;;13.63;7.00;;;18.90;48.70;;;;;;6302875;22;20814;-45
2023/10/10 07:06:47;;;;;;;12.90;6.13;;;19.10;18.90;;;;;;6304807;22;20666;-45
2023/10/10 07:09:29;;;;;;;13.53;7.33;;;19.30;9.50;;;;;;6304066;22;20393;-45
2023/10/10 07:12:11;;;;;;;11.43;6.87;;;19.50;1.00;;;;;;6303727;22;20353;-44
2023/10/10 07:14:43;;;;;;;23.40;7.40;;;19.70;1.00;;;;;;6279640;22;20707;-45
2023/10/10 07:17:12;;;;;;;12.80;7.47;;;20.00;1.00;;;;;;6306359;22;20406;-45
2023/10/10 07:19:55;;;;;;;17.10;7.53;;;20.20;1.00;;;;;;6305334;22;20434;-45
2023/10/10 07:22:22;;;;;;;11.43;6.53;;;20.40;1.00;;;;;;6304787;22;20781;-44
2023/10/10 07:24:55;;;;;;;17.77;7.77;;;20.60;1.00;;;;;;6306091;22;20385;-44
2023/10/10 07:27:29;;;;;;;14.07;6.87;;;20.80;1.00;;;;;;6304732;22;20432;-45
2023/10/10 07:29:58;;;;;;;20.53;7.10;;;21.00;1.00;;;;;;6303919;22;20578;-44
2023/10/10 07:32:30;;;;;;;19.90;8.10;;;21.20;1.00;;;;;;6303884;22;20702;-44
2023/10/10 07:34:58;;;;;;;17.30;6.80;;;21.40;1.00;;;;;;6305740;22;20630;-44
2023/10/10 07:37:27;;;;;;;20.60;6.90;;;21.60;1.00;;;;;;6306099;22;20765;-44
2023/10/10 07:40:19;;;;;;;11.60;6.70;;;21.90;1.00;;;;;;6304910;22;20383;-44
2023/10/10 07:42:58;;;;;;;15.90;6.40;;;22.20;1.00;;;;;;6307242;22;20416;-44
2023/10/10 07:45:29;;;;;;;14.03;6.73;;;22.40;1.00;;;;;;6308062;22;20382;-44
2023/10/10 07:50:27;;;;;;;16.53;6.70;;;22.80;1.00;;;;;;6307717;22;20362;-44
2023/10/10 07:52:54;;;;;;;14.80;7.33;;;23.00;1.00;;;;;;6308788;22;20393;-44
2023/10/10 07:55:22;;;;;;;12.43;6.53;;;23.20;1.00;;;;;;6308331;22;20432;-44
2023/10/10 07:57:59;;;;;;;12.30;5.97;;;23.40;1.00;;;;;;6308133;22;20377;-45
2023/10/10 08:00:35;;;;;;;15.90;7.27;;;23.50;1.00;;;;;;6280461;22;20670;-44
2023/10/10 08:03:05;;;;;;;13.13;6.47;;;23.70;1.00;;;;;;6306870;22;20615;-45
2023/10/10 08:05:31;;;;;;;11.27;6.47;;;23.90;1.00;;;;;;6253274;22;20383;-45
2023/10/10 08:07:56;;;;;;;14.57;6.13;;;24.10;1.00;;;;;;6307334;22;20453;-45
2023/10/10 08:13:12;;;;;;;12.83;6.30;;;24.30;1.00;;;;;;6305822;22;20163;-45
2023/10/10 08:15:56;;;;;;;15.40;6.00;;;24.50;1.00;;;;;;6306713;22;20440;-45
2023/10/10 08:18:41;;;;;;;12.00;6.40;;;24.70;1.00;;;;;;6307062;22;20377;-45
2023/10/10 08:21:10;;;;;;;9.30;5.60;;;25.00;1.00;;;;;;6305052;22;20453;-45
2023/10/10 08:23:42;;;;;;;17.77;7.63;;;25.20;1.00;;;;;;6306154;22;20382;-47
2023/10/10 08:26:09;;;;;;;15.60;7.60;;;25.50;1.00;;;;;;6305834;22;20489;-45
2023/10/10 08:28:35;;;;;;;15.60;7.37;;;25.80;1.00;;;;;;6305043;22;20406;-46
2023/10/10 08:31:00;;;;;;;20.80;7.70;;;26.20;1.00;;;;;;6304256;22;20692;-46
2023/10/10 08:33:32;;;;;;;19.00;7.77;;;26.60;1.00;;;;;;6305692;22;20148;-46
2023/10/10 08:35:58;;;;;;;14.07;7.10;;;26.90;1.00;;;;;;6303266;22;20168;-45
2023/10/10 08:38:24;;;;;;;15.07;7.20;;;27.30;1.00;;;;;;6304997;22;20465;-45
2023/10/10 08:40:57;;;;;;;17.93;8.23;;;27.70;1.00;;;;;;6307961;22;20662;-46
2023/10/10 08:43:31;;;;;;;14.30;7.07;;;28.10;1.00;;;;;;6308013;22;20558;-46
2023/10/10 08:45:59;;;;;;;14.17;7.17;;;28.50;1.00;;;;;;6306235;22;20386;-45
2023/10/10 08:48:26;;;;;;;18.47;7.50;;;28.80;1.00;;;;;;6279938;22;20378;-45
2023/10/10 08:50:55;;;;;;;13.77;7.20;;;29.10;1.00;;;;;;6279072;22;20458;-46
2023/10/10 08:53:24;;;;;;;12.07;6.40;;;29.50;1.00;;;;;;6307815;22;20333;-46
2023/10/10 08:55:56;;;;;;;14.33;6.87;;;29.70;1.00;;;;;;6307646;22;20469;-46
2023/10/10 08:58:22;;;;;;;12.53;5.83;;;29.80;1.00;;;;;;6306462;22;20422;-46
2023/10/10 09:00:49;;;;;;;11.43;6.73;;;29.90;1.00;;;;;;6306049;22;20382;-46
2023/10/10 09:03:14;;;;;;;12.50;6.03;;;30.10;1.00;;;;;;6281070;22;20376;-46
2023/10/10 09:05:40;;;;;;;18.70;7.23;;;30.30;1.00;;;;;;6307847;22;20359;-46
2023/10/10 09:08:14;;;;;;;24.33;8.10;;;30.60;1.00;;;;;;6305769;22;20471;-45
2023/10/10 09:10:40;;;;;;;15.37;7.93;;;30.90;1.00;;;;;;6306445;22;20231;-46
2023/10/10 09:13:10;;;;;;;38.13;10.23;;;31.00;1.00;;;;;;6304209;22;20382;-45
2023/10/10 09:15:36;;;;;;;53.03;14.33;;;31.30;1.00;;;;;;6302971;22;20415;-47
2023/10/10 09:18:12;;;;;;;32.40;10.20;;;31.40;1.00;;;;;;6302908;22;20797;-45
2023/10/10 09:20:38;;;;;;;24.60;9.40;;;31.50;1.00;;;;;;6303635;22;20397;-46
2023/10/10 09:23:21;;;;;;;17.87;7.90;;;31.50;1.00;;;;;;6301970;22;20358;-46
2023/10/10 09:25:57;;;;;;;17.67;7.43;;;31.50;1.00;;;;;;6302426;22;20425;-56
2023/10/10 09:28:30;;;;;;;30.17;10.20;;;31.50;1.00;;;;;;6279912;22;20385;-46
2023/10/10 09:31:02;;;;;;;29.40;11.33;;;31.50;1.00;;;;;;6301748;22;20361;-46
2023/10/10 09:36:19;;;;;;;13.60;5.73;;;31.70;1.00;;;;;;6313192;22;20650;-46
2023/10/10 09:38:53;;;;;;;26.90;9.40;;;31.80;1.00;;;;;;6303183;22;20354;-46
2023/10/10 09:41:28;;;;;;;30.03;10.47;;;31.90;1.00;;;;;;6303579;22;20361;-46
2023/10/10 09:49:43;;;;;;;10.80;6.20;;;32.30;1.00;;;;;;6304458;22;20368;-46
2023/10/10 10:00:49;;;;;;;14.60;6.93;;;32.70;1.00;;;;;;6250236;22;20392;-47
2023/10/10 10:06:52;;;;;;;37.30;10.07;;;32.80;1.00;;;;;;6306835;22;20366;-45
2023/10/10 10:09:32;;;;;;;26.17;8.73;;;32.80;1.00;;;;;;6181948;23;20397;-46
2023/10/10 10:12:33;;;;;;;31.20;10.17;;;33.00;1.00;;;;;;6292781;22;20352;-46
2023/10/10 10:15:01;;;;;;;30.50;11.30;;;33.20;1.00;;;;;;6304579;22;20727;-46
2023/10/10 10:17:53;;;;;;;16.70;8.30;;;33.50;1.00;;;;;;6306020;22;20749;-45
2023/10/10 10:20:46;;;;;;;18.03;7.67;;;33.60;1.00;;;;;;6306468;22;20431;-46
2023/10/10 10:23:44;;;;;;;22.93;9.47;;;33.70;1.00;;;;;;6305113;22;20340;-42
2023/10/10 10:26:11;;;;;;;19.87;7.47;;;33.90;1.00;;;;;;6307520;22;20330;-39
2023/10/10 10:28:56;;;;;;;21.60;8.17;;;34.10;1.00;;;;;;6304164;22;20657;-41
2023/10/10 10:31:29;;;;;;;11.57;5.83;;;34.20;1.00;;;;;;6304641;22;20605;-37
2023/10/10 10:34:05;;;;;;;13.53;7.80;;;34.20;1.00;;;;;;6274213;22;20393;-37
2023/10/10 10:36:42;;;;;;;19.53;8.60;;;34.20;1.00;;;;;;6306196;22;20886;-37
2023/10/10 10:39:21;;;;;;;20.20;7.97;;;34.10;1.00;;;;;;6304159;22;20353;-37
2023/10/10 10:42:34;;;;;;;19.03;8.20;;;34.00;1.00;;;;;;6303685;22;20339;-38
2023/10/10 10:44:44;;;;;;;16.57;8.03;;;34.00;1.00;;;;;;6292155;22;20356;-37
2023/10/10 10:47:37;;;;;;;13.40;7.10;;;34.00;1.00;;;;;;6303433;22;20361;-39
2023/10/10 10:50:04;;;;;;;14.13;6.87;;;34.00;1.00;;;;;;6289154;22;20471;-37
2023/10/10 10:53:05;;;;;;;11.20;6.60;;;34.00;1.00;;;;;;6301029;22;20428;-41
2023/10/10 10:55:31;;;;;;;15.97;7.80;;;33.80;1.00;;;;;;6300480;22;20396;-40
2023/10/10 11:03:43;;;;;;;14.80;7.27;;;34.00;1.00;;;;;;6262184;22;20371;-43
2023/10/10 11:06:09;;;;;;;17.00;7.30;;;34.20;1.00;;;;;;6303249;22;20561;-41
2023/10/10 11:14:23;;;;;;;14.60;7.63;;;34.30;1.00;;;;;;6303478;22;20372;-45
2023/10/10 11:16:56;;;;;;;9.93;6.40;;;34.10;1.00;;;;;;6305421;22;20426;-40
2023/10/10 11:21:54;;;;;;;11.50;6.53;;;33.70;1.00;;;;;;6303244;22;20714;-41
2023/10/10 11:24:25;;;;;;;14.53;6.60;;;33.60;1.00;;;;;;6299892;22;20400;-43
2023/10/10 11:29:41;;;;;;;16.17;6.43;;;33.40;1.00;;;;;;6298832;22;20366;-42
2023/10/10 11:32:08;;;;;;;14.67;6.70;;;33.30;1.00;;;;;;6300483;22;20570;-41
2023/10/10 11:34:43;;;;;;;17.77;6.60;;;33.30;1.00;;;;;;6301451;22;20477;-40
2023/10/10 11:37:23;;;;;;;13.00;6.63;;;33.30;1.00;;;;;;6302984;22;20532;-41
2023/10/10 11:40:19;;;;;;;9.67;6.20;;;33.20;1.00;;;;;;6302324;22;20652;-42
2023/10/10 11:42:48;;;;;;;10.20;6.20;;;33.10;1.00;;;;;;6305649;22;20460;-42
2023/10/10 11:45:25;;;;;;;8.77;6.17;;;33.00;1.00;;;;;;6278247;22;20361;-40
2023/10/10 11:47:53;;;;;;;11.67;6.60;;;32.90;1.00;;;;;;6278042;22;20352;-41
2023/10/10 11:50:27;;;;;;;14.53;6.90;;;32.90;1.00;;;;;;6303249;22;20362;-41
2023/10/10 11:53:01;;;;;;;12.37;7.37;;;33.00;1.00;;;;;;6303643;22;20377;-42
2023/10/10 11:55:28;;;;;;;27.13;7.80;;;32.90;1.00;;;;;;6304278;22;20551;-41
2023/10/10 11:57:58;;;;;;;8.77;6.03;;;32.90;1.00;;;;;;6304876;22;20392;-41
2023/10/10 12:00:30;;;;;;;9.87;5.70;;;33.10;1.00;;;;;;6302612;22;20353;-45
2023/10/10 12:02:57;;;;;;;8.83;6.60;;;33.30;1.00;;;;;;6303186;22;20769;-41
2023/10/10 12:08:00;;;;;;;9.30;6.60;;;33.80;1.00;;;;;;6303984;22;20491;-45
2023/10/10 12:13:09;;;;;;;10.27;6.20;;;34.20;1.00;;;;;;6303331;22;20475;-41
2023/10/10 12:15:38;;;;;;;16.30;7.27;;;34.40;1.00;;;;;;6303396;22;20421;-40
2023/10/10 12:18:13;;;;;;;15.10;6.63;;;34.40;1.00;;;;;;6304672;22;20374;-41
2023/10/10 12:20:42;;;;;;;16.87;8.30;;;34.50;1.00;;;;;;6304574;22;20687;-40
2023/10/10 12:23:09;;;;;;;14.53;7.43;;;34.50;1.00;;;;;;6301641;22;20835;-42
2023/10/10 12:25:40;;;;;;;23.10;8.90;;;34.60;1.00;;;;;;6301572;22;20436;-43
2023/10/10 12:28:10;;;;;;;24.83;8.90;;;34.50;1.00;;;;;;6303487;22;20364;-40
2023/10/10 12:30:41;;;;;;;20.33;8.73;;;34.50;1.00;;;;;;6303508;22;20673;-41
2023/10/10 12:33:12;;;;;;;18.80;7.80;;;34.50;1.00;;;;;;6301102;22;20386;-43
2023/10/10 12:35:43;;;;;;;13.17;7.37;;;34.40;1.00;;;;;;6303046;22;20429;-40
2023/10/10 12:38:09;;;;;;;15.90;9.03;;;34.30;1.00;;;;;;6305261;22;20628;-41
2023/10/10 12:40:35;;;;;;;12.10;6.80;;;34.20;1.00;;;;;;6306206;22;20370;-42
2023/10/10 12:43:01;;;;;;;12.23;6.63;;;34.10;1.00;;;;;;6278654;22;20394;-43
2023/10/10 12:45:32;;;;;;;17.63;7.90;;;34.00;1.00;;;;;;6305064;22;20879;-43
2023/10/10 12:47:59;;;;;;;13.07;6.80;;;33.90;1.00;;;;;;6305020;22;20544;-42
2023/10/10 12:50:29;;;;;;;12.90;6.60;;;33.90;1.00;;;;;;6304809;22;20372;-42
2023/10/10 12:53:07;;;;;;;7.40;5.60;;;34.00;1.00;;;;;;6278877;22;20690;-41
2023/10/10 12:55:37;;;;;;;15.23;7.10;;;34.00;1.00;;;;;;6279629;22;20433;-41
2023/10/10 12:58:14;;;;;;;12.30;6.20;;;33.90;1.00;;;;;;6305682;22;20805;-39
2023/10/10 13:00:48;;;;;;;11.10;6.67;;;33.80;1.00;;;;;;6305906;22;20449;-43
2023/10/10 13:03:14;;;;;;;10.60;5.80;;;33.50;1.00;;;;;;6280467;22;20360;-43
2023/10/10 13:05:39;;;;;;;14.00;6.83;;;33.20;1.00;;;;;;6305710;22;20370;-42
2023/10/10 13:08:06;;;;;;;9.37;6.20;;;33.00;99.90;;;;;;6302742;22;20326;-42
2023/10/10 13:10:37;;;;;;;12.23;6.40;;;32.70;99.90;;;;;;6302340;22;20151;-43
2023/10/10 13:13:07;;;;;;;13.00;6.80;;;32.50;99.90;;;;;;6302700;22;20832;-41
2023/10/10 13:15:47;;;;;;;10.90;6.13;;;32.20;99.90;;;;;;6302958;22;20429;-43
2023/10/10 13:18:24;;;;;;;14.60;6.50;;;32.00;99.90;;;;;;6305364;22;20459;-41
2023/10/10 13:20:50;;;;;;;11.73;7.23;;;31.90;99.90;;;;;;6248117;22;20654;-41
2023/10/10 13:23:19;;;;;;;12.03;6.53;;;31.90;99.90;;;;;;6274373;22;20370;-41
2023/10/10 13:25:48;;;;;;;10.97;5.90;;;31.80;99.90;;;;;;6274466;22;20382;-42
2023/10/10 13:28:17;;;;;;;8.27;5.27;;;31.70;99.90;;;;;;6274360;22;20379;-44
2023/10/10 13:30:46;;;;;;;10.90;6.60;;;31.70;99.90;;;;;;6273168;22;20425;-41
2023/10/10 13:33:13;;;;;;;12.80;7.13;;;31.70;99.90;;;;;;6274424;22;20739;-41
2023/10/10 13:35:39;;;;;;;9.40;5.40;;;31.70;99.90;;;;;;6272886;22;20492;-40
2023/10/10 13:38:06;;;;;;;13.20;6.10;;;31.60;99.90;;;;;;6274267;22;20363;-41
2023/10/10 13:40:43;;;;;;;12.00;6.50;;;31.60;99.90;;;;;;6273432;22;20141;-40
2023/10/10 13:43:10;;;;;;;7.80;5.57;;;31.50;99.90;;;;;;6273575;22;20459;-41
2023/10/10 13:45:38;;;;;;;11.40;5.33;;;31.20;99.90;;;;;;6271876;22;20790;-41
2023/10/10 13:48:13;;;;;;;10.50;6.27;;;31.10;99.90;;;;;;6245933;22;20863;-41
2023/10/10 13:50:43;;;;;;;11.23;6.20;;;30.90;99.90;;;;;;6247179;22;20358;-43
2023/10/10 13:53:13;;;;;;;13.87;6.47;;;30.70;99.90;;;;;;6275723;22;20364;-40
2023/10/10 13:55:43;;;;;;;10.57;6.57;;;30.50;99.90;;;;;;6272095;22;20396;-41
2023/10/10 13:58:12;;;;;;;11.43;6.57;;;30.30;99.90;;;;;;6272100;22;20599;-42
2023/10/10 14:00:43;;;;;;;12.10;6.00;;;30.20;99.90;;;;;;6243318;22;20383;-40
2023/10/10 14:03:09;;;;;;;9.33;6.43;;;30.00;99.90;;;;;;6219368;22;20382;-41
2023/10/10 14:05:41;;;;;;;11.03;6.80;;;29.90;99.90;;;;;;6245999;22;20330;-41
2023/10/10 14:08:07;;;;;;;10.30;6.10;;;29.80;99.90;;;;;;6273853;22;20422;-42
2023/10/10 14:10:38;;;;;;;9.80;6.07;;;29.80;99.90;;;;;;6273324;22;20382;-44
2023/10/10 14:13:18;;;;;;;10.33;5.60;;;29.70;99.90;;;;;;6271129;22;20614;-41
2023/10/10 14:15:54;;;;;;;13.70;6.90;;;29.60;99.90;;;;;;6271190;22;20422;-42
2023/10/10 14:18:28;;;;;;;9.90;6.50;;;29.60;99.90;;;;;;6270746;22;20810;-42
2023/10/10 14:20:54;;;;;;;9.13;5.53;;;29.60;99.90;;;;;;6303916;22;20390;-43
2023/10/10 14:23:25;;;;;;;10.80;6.47;;;29.60;99.90;;;;;;6304507;22;20362;-42
2023/10/10 14:25:51;;;;;;;10.43;6.00;;;29.70;99.90;;;;;;6305697;22;20475;-40
2023/10/10 14:28:18;;;;;;;11.80;6.30;;;29.90;99.90;;;;;;6304079;22;20397;-43
2023/10/10 14:30:50;;;;;;;15.50;6.70;;;30.00;99.90;;;;;;6300550;22;20484;-41
2023/10/10 14:33:17;;;;;;;13.60;6.67;;;30.30;99.90;;;;;;6303609;22;20477;-43
2023/10/10 14:35:44;;;;;;;12.37;7.00;;;30.50;99.90;;;;;;6301573;22;20434;-43
2023/10/10 14:38:14;;;;;;;10.10;5.70;;;30.90;99.90;;;;;;6303393;22;20724;-42
2023/10/10 14:40:41;;;;;;;11.90;5.50;;;31.20;99.90;;;;;;6301137;22;20398;-42
2023/10/10 14:43:07;;;;;;;12.50;6.47;;;31.50;99.90;;;;;;6274772;22;20664;-42
2023/10/10 14:45:34;;;;;;;10.87;6.57;;;31.60;99.90;;;;;;6304159;22;20495;-41
2023/10/10 14:48:04;;;;;;;10.60;5.90;;;31.60;99.90;;;;;;6251339;22;20377;-43
2023/10/10 14:50:36;;;;;;;10.10;6.73;;;31.50;99.90;;;;;;6302964;22;20363;-42
2023/10/10 14:53:08;;;;;;;11.27;6.57;;;31.60;99.90;;;;;;6305029;22;20456;-42
2023/10/10 14:55:39;;;;;;;18.00;6.70;;;31.50;1.00;;;;;;6305240;22;20404;-43
2023/10/10 14:58:09;;;;;;;12.00;6.10;;;31.50;99.90;;;;;;6275943;22;20404;-41
2023/10/10 15:00:41;;;;;;;11.87;5.40;;;31.40;99.90;;;;;;6276406;22;20432;-43
2023/10/10 15:03:15;;;;;;;12.03;6.73;;;31.50;99.90;;;;;;6305247;22;20604;-41
2023/10/10 15:06:06;;;;;;;13.93;6.70;;;31.60;99.90;;;;;;6277722;22;20358;-42
2023/10/10 15:08:31;;;;;;;19.87;7.40;;;31.60;99.90;;;;;;6277924;22;20375;-43
2023/10/10 15:10:57;;;;;;;13.83;7.00;;;31.60;99.90;;;;;;6304416;22;20590;-41
2023/10/10 15:13:25;;;;;;;13.17;6.80;;;31.50;99.90;;;;;;6302895;22;20159;-41
2023/10/10 15:15:52;;;;;;;14.47;6.90;;;31.50;99.90;;;;;;6304915;22;20241;-41
2023/10/10 15:18:18;;;;;;;11.97;6.23;;;31.50;99.90;;;;;;6303267;22;20393;-45
2023/10/10 15:20:48;;;;;;;15.70;7.50;;;31.50;99.90;;;;;;6301543;22;20440;-43
2023/10/10 15:23:22;;;;;;;9.07;6.30;;;31.40;99.90;;;;;;6270551;22;20354;-40
2023/10/10 15:25:55;;;;;;;13.27;7.30;;;31.20;99.90;;;;;;6302015;22;20386;-43
2023/10/10 15:28:22;;;;;;;15.43;6.67;;;31.10;99.90;;;;;;6299281;22;20389;-43
2023/10/10 15:30:47;;;;;;;14.90;6.43;;;30.90;99.90;;;;;;6302376;22;20381;-41
2023/10/10 15:33:22;;;;;;;10.60;6.53;;;30.70;99.90;;;;;;6301816;22;20639;-42
2023/10/10 15:35:52;;;;;;;15.53;6.80;;;30.60;99.90;;;;;;6301578;22;20427;-43
2023/10/10 15:38:18;;;;;;;9.67;6.53;;;30.60;99.90;;;;;;6299679;22;20344;-42
2023/10/10 15:40:45;;;;;;;12.47;7.13;;;30.60;99.90;;;;;;6247897;22;20388;-40
2023/10/10 15:43:11;;;;;;;15.23;8.20;;;30.70;99.90;;;;;;6302805;22;20443;-42
2023/10/10 15:45:44;;;;;;;13.73;7.17;;;30.70;99.90;;;;;;6302593;22;20477;-41
2023/10/10 15:48:21;;;;;;;13.73;7.63;;;30.60;1.00;;;;;;6300771;22;20168;-41
2023/10/10 15:50:57;;;;;;;12.43;7.90;;;30.50;99.90;;;;;;6303071;22;20708;-42
2023/10/10 15:53:27;;;;;;;13.10;8.37;;;30.40;99.90;;;;;;6300139;22;20719;-40
2023/10/10 15:56:14;;;;;;;13.23;7.53;;;30.30;99.90;;;;;;6302118;22;20549;-41
2023/10/10 15:58:43;;;;;;;10.87;8.00;;;30.10;99.90;;;;;;6302397;22;20599;-41
2023/10/10 16:01:21;;;;;;;9.93;7.33;;;29.90;99.90;;;;;;6301145;22;20455;-41